createdAt,value
2023-05-04T00:00:49.540Z,99.90
2023-05-04T00:03:17.394Z,99.90
2023-05-04T00:05:44.864Z,99.90
2023-05-04T00:08:12.008Z,99.90
2023-05-04T00:10:39.357Z,99.90
2023-05-04T00:13:07.249Z,99.90
2023-05-04T00:15:36.892Z,99.90
2023-05-04T00:18:04.349Z,99.90
2023-05-04T00:20:31.658Z,99.90
2023-05-04T00:22:59.015Z,99.90
2023-05-04T00:25:26.712Z,99.90
2023-05-04T00:27:54.395Z,99.90
2023-05-04T00:30:21.926Z,99.90
2023-05-04T00:32:49.189Z,99.90
2023-05-04T00:35:16.643Z,99.90
2023-05-04T00:37:46.596Z,99.90
2023-05-04T00:40:13.971Z,99.90
2023-05-04T00:42:41.419Z,99.90
2023-05-04T00:45:09.307Z,99.90
2023-05-04T00:47:37.197Z,99.90
2023-05-04T00:50:05.800Z,99.90
2023-05-04T00:52:34.560Z,99.90
2023-05-04T00:55:02.562Z,99.90
2023-05-04T00:57:29.841Z,99.90
2023-05-04T00:59:57.463Z,99.90
2023-05-04T01:02:24.853Z,99.90
2023-05-04T01:04:52.436Z,99.90
2023-05-04T01:07:42.779Z,99.90
2023-05-04T01:10:20.379Z,99.90
2023-05-04T01:13:08.689Z,99.90
2023-05-04T01:15:36.996Z,99.90
2023-05-04T01:18:04.483Z,99.90
2023-05-04T01:20:32.180Z,99.90
2023-05-04T01:23:00.156Z,99.90
2023-05-04T01:25:34.854Z,99.90
2023-05-04T01:28:15.935Z,99.90
2023-05-04T01:30:45.763Z,99.90
2023-05-04T01:33:13.204Z,99.90
2023-05-04T01:35:40.874Z,99.90
2023-05-04T01:38:08.664Z,99.90
2023-05-04T01:40:36.101Z,99.90
2023-05-04T01:43:03.701Z,99.90
2023-05-04T01:45:31.092Z,99.90
2023-05-04T01:47:59.073Z,99.90
2023-05-04T01:50:26.576Z,99.90
2023-05-04T01:52:53.772Z,99.90
2023-05-04T01:55:21.199Z,99.90
2023-05-04T01:57:48.704Z,99.90
2023-05-04T02:00:16.869Z,99.90
2023-05-04T02:02:44.549Z,99.90
2023-05-04T02:05:12.067Z,99.90
2023-05-04T02:07:39.487Z,99.90
2023-05-04T02:10:07.744Z,99.90
2023-05-04T02:12:35.447Z,99.90
2023-05-04T02:15:02.959Z,99.90
2023-05-04T02:17:30.288Z,99.90
2023-05-04T02:19:57.540Z,99.90
2023-05-04T02:22:24.867Z,99.90
2023-05-04T02:24:52.319Z,99.90
2023-05-04T02:27:19.697Z,99.90
2023-05-04T02:29:47.046Z,99.90
2023-05-04T02:32:14.229Z,99.90
2023-05-04T02:34:41.410Z,99.90
2023-05-04T02:37:08.879Z,99.90
2023-05-04T02:39:36.725Z,99.90
2023-05-04T02:42:04.058Z,99.90
2023-05-04T02:44:31.269Z,99.90
2023-05-04T02:46:58.653Z,99.90
2023-05-04T02:49:25.935Z,99.90
2023-05-04T02:51:53.332Z,99.90
2023-05-04T02:54:20.817Z,99.90
2023-05-04T02:56:48.094Z,99.90
2023-05-04T02:59:15.414Z,99.90
2023-05-04T03:01:42.675Z,99.90
2023-05-04T03:04:10.126Z,99.90
2023-05-04T03:06:37.438Z,99.90
2023-05-04T03:09:05.072Z,99.90
2023-05-04T03:11:32.520Z,99.90
2023-05-04T03:13:59.879Z,99.90
2023-05-04T03:16:27.440Z,99.90
2023-05-04T03:21:40.778Z,99.90
2023-05-04T03:24:08.270Z,99.90
2023-05-04T03:26:35.604Z,99.90
2023-05-04T03:29:02.896Z,99.90
2023-05-04T03:31:30.295Z,99.90
2023-05-04T03:33:57.491Z,99.90
2023-05-04T03:36:24.929Z,99.90
2023-05-04T03:38:52.105Z,99.90
2023-05-04T03:41:19.494Z,99.90
2023-05-04T03:43:46.858Z,99.90
2023-05-04T03:46:14.231Z,99.90
2023-05-04T03:48:42.517Z,99.90
2023-05-04T03:51:09.837Z,99.90
2023-05-04T03:53:37.087Z,99.90
2023-05-04T03:56:05.016Z,99.90
2023-05-04T03:58:32.503Z,99.90
2023-05-04T04:01:01.379Z,99.90
2023-05-04T04:03:28.848Z,99.90
2023-05-04T04:05:56.459Z,99.90
2023-05-04T04:08:23.584Z,99.90
2023-05-04T04:10:51.340Z,99.90
2023-05-04T04:13:18.536Z,99.90
2023-05-04T04:15:46.960Z,99.90
2023-05-04T04:18:14.370Z,99.90
2023-05-04T04:20:42.128Z,99.90
2023-05-04T04:23:09.566Z,99.90
2023-05-04T04:25:37.598Z,99.90
2023-05-04T04:28:05.202Z,99.90
2023-05-04T04:30:32.368Z,99.90
2023-05-04T04:33:00.133Z,99.90
2023-05-04T04:35:30.485Z,99.90
2023-05-04T04:37:57.671Z,99.90
2023-05-04T04:40:25.066Z,99.90
2023-05-04T04:42:52.652Z,99.90
2023-05-04T04:45:20.827Z,99.90
2023-05-04T04:47:48.257Z,99.90
2023-05-04T04:50:15.612Z,99.90
2023-05-04T04:52:42.825Z,99.90
2023-05-04T04:55:10.555Z,99.90
2023-05-04T04:57:37.861Z,99.90
2023-05-04T05:00:09.680Z,99.90
2023-05-04T05:02:37.146Z,99.90
2023-05-04T05:05:05.045Z,99.90
2023-05-04T05:07:32.995Z,99.90
2023-05-04T05:10:00.415Z,99.90
2023-05-04T05:12:27.709Z,99.90
2023-05-04T05:14:55.315Z,99.90
2023-05-04T05:17:22.729Z,99.90
2023-05-04T05:19:50.437Z,99.90
2023-05-04T05:22:17.537Z,99.90
2023-05-04T05:24:46.226Z,99.90
2023-05-04T05:27:13.521Z,99.90
2023-05-04T05:29:40.900Z,99.90
2023-05-04T05:32:09.014Z,99.90
2023-05-04T05:34:39.117Z,99.90
2023-05-04T05:37:06.359Z,99.90
2023-05-04T05:39:34.504Z,99.90
2023-05-04T05:42:02.420Z,99.90
2023-05-04T05:44:29.875Z,99.90
2023-05-04T05:46:57.354Z,99.90
2023-05-04T05:49:24.507Z,99.90
2023-05-04T05:51:51.779Z,99.90
2023-05-04T05:54:19.921Z,99.90
2023-05-04T05:56:47.314Z,99.90
2023-05-04T05:59:16.191Z,99.90
2023-05-04T06:01:43.756Z,99.90
2023-05-04T06:04:10.966Z,99.90
2023-05-04T06:06:38.420Z,99.90
2023-05-04T06:09:06.454Z,99.90
2023-05-04T06:11:33.816Z,99.90
2023-05-04T06:14:01.510Z,99.90
2023-05-04T06:16:28.908Z,99.90
2023-05-04T06:18:56.578Z,99.90
2023-05-04T06:21:26.112Z,99.90
2023-05-04T06:23:53.283Z,99.90
2023-05-04T06:26:20.549Z,99.90
2023-05-04T06:28:50.258Z,99.90
2023-05-04T06:31:17.706Z,99.90
2023-05-04T06:33:45.147Z,99.90
2023-05-04T06:36:13.738Z,99.90
2023-05-04T06:38:41.264Z,99.90
2023-05-04T06:41:08.684Z,99.90
2023-05-04T06:43:36.583Z,99.90
2023-05-04T06:46:04.135Z,99.90
2023-05-04T06:48:31.904Z,99.90
2023-05-04T06:51:00.796Z,99.90
2023-05-04T06:53:29.886Z,99.90
2023-05-04T06:55:56.935Z,99.90
2023-05-04T06:58:24.166Z,99.90
2023-05-04T07:00:53.133Z,99.90
2023-05-04T07:03:20.504Z,99.90
2023-05-04T07:05:49.253Z,99.90
2023-05-04T07:08:16.722Z,99.90
2023-05-04T07:10:44.405Z,99.90
2023-05-04T07:13:11.828Z,99.90
2023-05-04T07:15:39.783Z,99.90
2023-05-04T07:18:07.237Z,99.90
2023-05-04T07:20:34.766Z,99.90
2023-05-04T07:23:01.975Z,99.90
2023-05-04T07:25:29.628Z,99.90
2023-05-04T07:27:56.755Z,99.90
2023-05-04T07:30:25.277Z,99.90
2023-05-04T07:32:52.818Z,99.90
2023-05-04T07:35:20.428Z,99.90
2023-05-04T07:37:47.972Z,99.90
2023-05-04T07:40:15.469Z,99.90
2023-05-04T07:42:43.020Z,99.90
2023-05-04T07:45:10.731Z,99.90
2023-05-04T07:47:38.098Z,99.90
2023-05-04T07:50:05.645Z,99.90
2023-05-04T07:52:33.735Z,99.90
2023-05-04T07:55:01.079Z,99.90
2023-05-04T07:57:28.208Z,99.90
2023-05-04T07:59:56.505Z,99.90
2023-05-04T08:02:24.036Z,99.90
2023-05-04T08:04:52.456Z,99.90
2023-05-04T08:07:20.816Z,99.90
2023-05-04T08:09:48.194Z,99.90
2023-05-04T08:12:15.500Z,99.90
2023-05-04T08:14:42.721Z,99.90
2023-05-04T08:17:10.044Z,99.90
2023-05-04T08:19:37.257Z,99.90
2023-05-04T08:22:04.391Z,99.90
2023-05-04T08:24:31.628Z,99.90
2023-05-04T08:27:07.132Z,99.90
2023-05-04T08:29:37.514Z,99.90
2023-05-04T08:32:05.180Z,99.90
2023-05-04T08:34:32.495Z,99.90
2023-05-04T08:36:59.802Z,99.90
2023-05-04T08:39:27.119Z,99.90
2023-05-04T08:41:54.362Z,99.90
2023-05-04T08:44:22.779Z,99.90
2023-05-04T08:46:54.151Z,99.90
2023-05-04T08:49:22.029Z,99.90
2023-05-04T08:51:50.804Z,99.90
2023-05-04T08:54:18.624Z,99.90
2023-05-04T08:56:47.334Z,99.90
2023-05-04T08:59:25.291Z,99.90
2023-05-04T09:01:59.753Z,99.90
2023-05-04T09:04:29.765Z,99.90
2023-05-04T09:06:58.260Z,99.90
2023-05-04T09:09:29.592Z,99.90
2023-05-04T09:11:56.994Z,99.90
2023-05-04T09:14:33.590Z,99.90
2023-05-04T09:17:02.108Z,99.90
2023-05-04T09:19:39.333Z,99.90
2023-05-04T09:22:19.780Z,99.90
2023-05-04T09:24:47.563Z,99.60
2023-05-04T09:27:25.931Z,99.20
2023-05-04T09:29:56.905Z,98.60
2023-05-04T09:32:24.508Z,98.70
2023-05-04T09:34:53.524Z,98.30
2023-05-04T09:37:22.354Z,98.00
2023-05-04T09:39:54.039Z,97.90
2023-05-04T09:42:22.240Z,97.80
2023-05-04T09:45:05.988Z,97.60
2023-05-04T09:47:35.183Z,97.10
2023-05-04T09:50:19.795Z,96.90
2023-05-04T09:52:48.744Z,96.60
2023-05-04T09:55:19.368Z,96.30
2023-05-04T09:57:48.696Z,96.00
2023-05-04T10:00:18.177Z,96.20
2023-05-04T10:02:46.913Z,96.40
2023-05-04T10:05:21.545Z,96.20
2023-05-04T10:07:48.924Z,96.00
2023-05-04T10:10:16.791Z,95.50
2023-05-04T10:12:45.742Z,95.50
2023-05-04T10:15:14.917Z,95.10
2023-05-04T10:18:07.174Z,94.90
2023-05-04T10:21:03.426Z,94.80
2023-05-04T10:23:37.382Z,94.80
2023-05-04T10:26:32.225Z,94.80
2023-05-04T10:29:14.014Z,94.60
2023-05-04T10:31:42.422Z,94.20
2023-05-04T10:34:13.617Z,93.30
2023-05-04T10:36:42.493Z,93.50
2023-05-04T10:39:23.221Z,93.50
2023-05-04T10:42:07.516Z,93.40
2023-05-04T10:44:37.708Z,93.50
2023-05-04T10:47:09.235Z,93.60
2023-05-04T10:49:36.622Z,93.20
2023-05-04T10:52:10.913Z,93.60
2023-05-04T10:54:39.524Z,93.40
2023-05-04T10:57:17.719Z,93.10
2023-05-04T11:00:04.710Z,93.20
2023-05-04T11:02:34.127Z,92.30
2023-05-04T11:05:08.101Z,91.70
2023-05-04T11:07:39.677Z,91.60
2023-05-04T11:10:10.081Z,91.50
2023-05-04T11:12:38.911Z,91.00
2023-05-04T11:15:11.850Z,90.70
2023-05-04T11:17:49.050Z,90.70
2023-05-04T11:20:26.101Z,90.40
2023-05-04T11:22:54.445Z,90.40
2023-05-04T11:25:28.997Z,90.30
2023-05-04T11:27:56.752Z,90.10
2023-05-04T11:30:37.506Z,90.00
2023-05-04T11:33:12.583Z,89.80
2023-05-04T11:35:41.006Z,88.30
2023-05-04T11:38:08.681Z,88.50
2023-05-04T11:40:37.771Z,88.40
2023-05-04T11:43:05.533Z,88.10
2023-05-04T11:45:36.960Z,87.20
2023-05-04T11:48:04.877Z,86.30
2023-05-04T11:50:33.574Z,85.80
2023-05-04T11:53:09.491Z,85.70
2023-05-04T11:55:40.465Z,84.90
2023-05-04T11:58:10.029Z,83.70
2023-05-04T12:00:41.966Z,82.40
2023-05-04T12:03:27.884Z,82.00
2023-05-04T12:06:03.234Z,81.30
2023-05-04T12:08:34.935Z,80.60
2023-05-04T12:11:26.565Z,80.00
2023-05-04T12:14:06.760Z,79.70
2023-05-04T12:16:34.310Z,79.00
2023-05-04T12:19:05.533Z,78.30
2023-05-04T12:21:33.950Z,77.80
2023-05-04T12:24:02.252Z,76.70
2023-05-04T12:26:30.309Z,77.70
2023-05-04T12:28:59.383Z,78.00
2023-05-04T12:31:27.425Z,77.90
2023-05-04T12:33:55.387Z,77.30
2023-05-04T12:36:22.882Z,76.50
2023-05-04T12:38:52.538Z,75.90
2023-05-04T12:41:19.826Z,75.00
2023-05-04T12:43:47.392Z,74.10
2023-05-04T12:46:14.707Z,73.70
2023-05-04T12:48:42.205Z,73.40
2023-05-04T12:51:09.592Z,72.20
2023-05-04T12:53:37.249Z,71.90
2023-05-04T12:56:07.427Z,72.20
2023-05-04T12:58:34.790Z,72.40
2023-05-04T13:01:02.256Z,72.40
2023-05-04T13:03:29.950Z,72.30
2023-05-04T13:05:58.372Z,72.20
2023-05-04T13:08:26.133Z,72.20
2023-05-04T13:10:53.368Z,71.20
2023-05-04T13:13:23.247Z,71.20
2023-05-04T13:15:51.635Z,71.70
2023-05-04T13:18:18.916Z,72.00
2023-05-04T13:20:46.900Z,71.50
2023-05-04T13:23:14.362Z,70.00
2023-05-04T13:25:42.434Z,69.20
2023-05-04T13:28:09.696Z,69.60
2023-05-04T13:30:37.032Z,69.30
2023-05-04T13:33:13.313Z,69.30
2023-05-04T13:35:48.528Z,70.70
2023-05-04T13:38:15.796Z,72.20
2023-05-04T13:40:44.634Z,72.50
2023-05-04T13:43:11.853Z,71.70
2023-05-04T13:45:40.232Z,70.80
2023-05-04T13:48:07.723Z,70.80
2023-05-04T13:50:34.940Z,70.00
2023-05-04T13:53:03.087Z,69.30
2023-05-04T13:55:30.213Z,68.20
2023-05-04T13:57:57.621Z,69.00
2023-05-04T14:00:24.969Z,69.20
2023-05-04T14:02:52.535Z,69.10
2023-05-04T14:05:20.945Z,69.50
2023-05-04T14:07:48.341Z,69.70
2023-05-04T14:10:16.211Z,69.70
2023-05-04T14:12:43.599Z,70.60
2023-05-04T14:15:11.390Z,69.60
2023-05-04T14:17:39.817Z,69.80
2023-05-04T14:20:08.017Z,70.50
2023-05-04T14:22:38.028Z,70.50
2023-05-04T14:25:06.316Z,70.00
2023-05-04T14:27:35.634Z,69.10
2023-05-04T14:30:04.284Z,69.10
2023-05-04T14:32:31.761Z,68.20
2023-05-04T14:35:08.443Z,67.50
2023-05-04T14:37:37.912Z,67.60
2023-05-04T14:40:07.118Z,67.50
2023-05-04T14:42:34.830Z,67.50
2023-05-04T14:45:02.124Z,67.60
2023-05-04T14:47:30.271Z,67.70
2023-05-04T14:49:57.866Z,68.00
2023-05-04T14:52:25.951Z,68.20
2023-05-04T14:54:53.466Z,68.10
2023-05-04T14:57:20.726Z,67.60
2023-05-04T14:59:48.004Z,68.30
2023-05-04T15:02:15.715Z,68.70
2023-05-04T15:04:42.984Z,69.40
2023-05-04T15:07:10.466Z,69.10
2023-05-04T15:09:38.494Z,68.50
2023-05-04T15:12:06.112Z,68.90
2023-05-04T15:14:33.399Z,69.20
2023-05-04T15:17:00.875Z,69.60
2023-05-04T15:19:28.214Z,69.80
2023-05-04T15:21:55.524Z,70.20
2023-05-04T15:24:23.011Z,70.30
2023-05-04T15:26:50.085Z,70.00
2023-05-04T15:29:17.372Z,70.10
2023-05-04T15:31:44.695Z,70.50
2023-05-04T15:34:12.173Z,70.90
2023-05-04T15:36:39.764Z,70.90
2023-05-04T15:39:08.532Z,71.00
2023-05-04T15:41:36.500Z,71.20
2023-05-04T15:44:08.798Z,71.40
2023-05-04T15:46:36.305Z,71.40
2023-05-04T15:49:03.681Z,71.30
2023-05-04T15:51:32.321Z,71.10
2023-05-04T15:53:59.664Z,71.30
2023-05-04T15:56:27.285Z,71.40
2023-05-04T15:58:54.530Z,71.40
2023-05-04T16:01:22.015Z,71.50
2023-05-04T16:03:49.416Z,71.80
2023-05-04T16:06:17.961Z,72.30
2023-05-04T16:09:00.296Z,73.10
2023-05-04T16:11:27.787Z,73.70
2023-05-04T16:13:55.014Z,73.80
2023-05-04T16:16:22.811Z,73.90
2023-05-04T16:18:50.056Z,73.80
2023-05-04T16:21:17.386Z,73.80
2023-05-04T16:23:44.759Z,73.90
2023-05-04T16:26:12.328Z,74.30
2023-05-04T16:28:40.718Z,74.60
2023-05-04T16:31:10.353Z,74.80
2023-05-04T16:33:41.111Z,75.50
2023-05-04T16:36:08.773Z,76.10
2023-05-04T16:38:35.884Z,76.60
2023-05-04T16:41:03.156Z,76.80
2023-05-04T16:43:30.485Z,77.20
2023-05-04T16:45:57.945Z,78.00
2023-05-04T16:48:25.734Z,78.70
2023-05-04T16:50:53.009Z,79.50
2023-05-04T16:53:20.367Z,80.20
2023-05-04T16:55:51.187Z,80.70
2023-05-04T16:58:18.260Z,81.40
2023-05-04T17:00:45.401Z,82.30
2023-05-04T17:03:12.697Z,83.10
2023-05-04T17:05:39.996Z,83.90
2023-05-04T17:08:07.601Z,84.70
2023-05-04T17:10:37.550Z,85.30
2023-05-04T17:13:05.618Z,86.00
2023-05-04T17:15:32.867Z,86.50
2023-05-04T17:18:01.350Z,87.20
2023-05-04T17:20:32.280Z,87.50
2023-05-04T17:23:00.140Z,87.90
2023-05-04T17:25:27.802Z,88.40
2023-05-04T17:27:55.510Z,88.80
2023-05-04T17:30:22.919Z,89.50
2023-05-04T17:32:50.422Z,90.00
2023-05-04T17:35:25.347Z,90.10
2023-05-04T17:37:57.875Z,90.30
2023-05-04T17:40:28.100Z,90.40
2023-05-04T17:42:56.052Z,90.50
2023-05-04T17:45:23.589Z,90.70
2023-05-04T17:47:52.002Z,90.80
2023-05-04T17:50:19.947Z,91.00
2023-05-04T17:52:57.952Z,91.10
2023-05-04T17:55:28.542Z,91.40
2023-05-04T17:57:55.823Z,91.60
2023-05-04T18:00:23.425Z,91.90
2023-05-04T18:02:50.589Z,92.10
2023-05-04T18:05:17.937Z,92.40
2023-05-04T18:07:45.212Z,92.70
2023-05-04T18:10:12.677Z,93.00
2023-05-04T18:12:39.981Z,93.30
2023-05-04T18:15:09.313Z,93.50
2023-05-04T18:17:38.360Z,93.80
2023-05-04T18:20:08.515Z,94.10
2023-05-04T18:22:36.281Z,94.30
2023-05-04T18:25:06.020Z,94.50
2023-05-04T18:27:34.603Z,94.70
2023-05-04T18:30:14.637Z,94.80
2023-05-04T18:32:42.103Z,95.10
2023-05-04T18:35:09.785Z,95.30
2023-05-04T18:37:37.280Z,95.60
2023-05-04T18:40:05.324Z,95.80
2023-05-04T18:42:33.190Z,96.10
2023-05-04T18:45:00.598Z,96.20
2023-05-04T18:47:28.032Z,96.40
2023-05-04T18:52:22.154Z,96.80
2023-05-04T18:54:49.895Z,96.90
2023-05-04T18:57:20.319Z,97.10
2023-05-04T18:59:47.484Z,97.30
2023-05-04T19:02:14.611Z,97.50
2023-05-04T19:04:43.426Z,97.80
2023-05-04T19:07:10.663Z,98.00
2023-05-04T19:09:38.779Z,98.10
2023-05-04T19:12:10.576Z,98.30
2023-05-04T19:14:50.406Z,98.50
2023-05-04T19:17:18.722Z,98.70
2023-05-04T19:19:46.041Z,98.90
2023-05-04T19:22:15.798Z,99.10
2023-05-04T19:24:43.122Z,99.30
2023-05-04T19:27:20.359Z,99.50
2023-05-04T19:29:50.953Z,99.80
2023-05-04T19:32:24.227Z,99.90
2023-05-04T19:34:52.914Z,99.90
2023-05-04T19:37:21.228Z,99.90
2023-05-04T19:39:48.477Z,99.90
2023-05-04T19:42:16.453Z,99.90
2023-05-04T19:44:44.369Z,99.90
2023-05-04T19:47:12.896Z,99.90
2023-05-04T19:49:40.198Z,99.90
2023-05-04T19:52:07.588Z,99.90
2023-05-04T19:54:38.896Z,99.90
2023-05-04T19:57:06.287Z,99.90
2023-05-04T19:59:34.228Z,99.90
2023-05-04T20:02:01.737Z,99.90
2023-05-04T20:04:29.197Z,99.90
2023-05-04T20:06:56.425Z,99.90
2023-05-04T20:09:23.721Z,99.90
2023-05-04T20:11:50.977Z,99.90
2023-05-04T20:14:18.310Z,99.90
2023-05-04T20:16:48.837Z,99.90
2023-05-04T20:19:16.287Z,99.90
2023-05-04T20:21:43.573Z,99.90
2023-05-04T20:24:12.123Z,99.90
2023-05-04T20:26:39.380Z,99.90
2023-05-04T20:29:06.691Z,99.90
2023-05-04T20:31:34.425Z,99.90
2023-05-04T20:34:01.646Z,99.90
2023-05-04T20:36:29.497Z,99.90
2023-05-04T20:38:56.517Z,99.90
2023-05-04T20:41:24.176Z,99.90
2023-05-04T20:43:51.623Z,99.90
2023-05-04T20:46:19.475Z,99.90
2023-05-04T20:48:46.714Z,99.90
2023-05-04T20:51:15.362Z,99.90
2023-05-04T20:53:43.300Z,99.90
2023-05-04T20:56:10.890Z,99.90
2023-05-04T20:58:38.200Z,99.90
2023-05-04T21:01:06.253Z,99.90
2023-05-04T21:03:34.626Z,99.90
2023-05-04T21:06:02.863Z,99.90
2023-05-04T21:08:30.126Z,99.90
2023-05-04T21:10:57.458Z,99.90
2023-05-04T21:13:24.690Z,99.90
2023-05-04T21:15:52.130Z,99.90
2023-05-04T21:18:19.924Z,99.90
2023-05-04T21:20:47.615Z,99.90
2023-05-04T21:23:14.966Z,99.90
2023-05-04T21:25:42.618Z,99.90
2023-05-04T21:28:10.098Z,99.90
2023-05-04T21:30:44.138Z,99.90
2023-05-04T21:33:11.339Z,99.90
2023-05-04T21:35:38.967Z,99.90
2023-05-04T21:38:06.391Z,99.90
2023-05-04T21:40:33.797Z,99.90
2023-05-04T21:43:02.322Z,99.90
2023-05-04T21:45:33.593Z,99.90
2023-05-04T21:48:02.831Z,99.90
2023-05-04T21:50:30.465Z,99.90
2023-05-04T21:52:57.848Z,99.90
2023-05-04T21:55:25.228Z,99.90
2023-05-04T21:57:52.512Z,99.90
2023-05-04T22:00:20.088Z,99.90
2023-05-04T22:02:47.427Z,99.90
2023-05-04T22:05:15.344Z,99.90
2023-05-04T22:07:43.068Z,99.90
2023-05-04T22:10:10.840Z,99.90
2023-05-04T22:12:38.370Z,99.90
2023-05-04T22:15:06.990Z,99.90
2023-05-04T22:17:34.413Z,99.90
2023-05-04T22:20:01.797Z,99.90
2023-05-04T22:22:29.194Z,99.90
2023-05-04T22:24:56.813Z,99.90
2023-05-04T22:27:24.350Z,99.90
2023-05-04T22:29:52.262Z,99.90
2023-05-04T22:32:19.626Z,99.90
2023-05-04T22:34:47.114Z,99.90
2023-05-04T22:37:14.456Z,99.90
2023-05-04T22:39:42.258Z,99.90
2023-05-04T22:42:09.662Z,99.90
2023-05-04T22:44:36.887Z,99.90
2023-05-04T22:47:04.482Z,99.90
2023-05-04T22:49:31.808Z,99.90
2023-05-04T22:51:59.814Z,99.90
2023-05-04T22:54:27.100Z,99.90
2023-05-04T22:56:54.588Z,99.90
2023-05-04T22:59:21.892Z,99.90
2023-05-04T23:01:50.384Z,99.90
2023-05-04T23:04:17.559Z,99.90
2023-05-04T23:06:45.090Z,99.90
2023-05-04T23:09:13.232Z,99.90
2023-05-04T23:11:40.899Z,99.90
2023-05-04T23:14:08.514Z,99.90
2023-05-04T23:16:35.774Z,99.90
2023-05-04T23:19:03.173Z,99.90
2023-05-04T23:21:31.346Z,99.90
2023-05-04T23:23:58.498Z,99.90
2023-05-04T23:26:25.998Z,99.90
2023-05-04T23:28:53.374Z,99.90
2023-05-04T23:31:21.379Z,99.90
2023-05-04T23:33:49.053Z,99.90
2023-05-04T23:36:16.603Z,99.90
2023-05-04T23:38:44.107Z,99.90
2023-05-04T23:41:11.489Z,99.90
2023-05-04T23:43:38.808Z,99.90
2023-05-04T23:46:06.425Z,99.90
2023-05-04T23:48:33.700Z,99.90
2023-05-04T23:51:04.836Z,99.90
2023-05-04T23:53:32.552Z,99.90
2023-05-04T23:56:03.532Z,99.90
2023-05-04T23:58:32.768Z,99.90
